sensor_id;sensor_type;location;lat;lon;timestamp;P1;durP1;ratioP1;P2;durP2;ratioP2
16153;SDS011;8182;55.648;13.208;2024-03-25T00:01:42;32.83;;;20.43;;
16153;SDS011;8182;55.648;13.208;2024-03-25T00:04:09;30.23;;;19.93;;
16153;SDS011;8182;55.648;13.208;2024-03-25T00:06:35;30.80;;;20.57;;
16153;SDS011;8182;55.648;13.208;2024-03-25T00:09:03;31.63;;;20.50;;
16153;SDS011;8182;55.648;13.208;2024-03-25T00:11:30;30.37;;;20.47;;
16153;SDS011;8182;55.648;13.208;2024-03-25T00:13:57;31.73;;;19.90;;
16153;SDS011;8182;55.648;13.208;2024-03-25T00:16:22;32.10;;;20.70;;
16153;SDS011;8182;55.648;13.208;2024-03-25T00:18:49;31.70;;;20.87;;
16153;SDS011;8182;55.648;13.208;2024-03-25T00:21:15;33.37;;;20.80;;
16153;SDS011;8182;55.648;13.208;2024-03-25T00:23:42;30.87;;;20.67;;
16153;SDS011;8182;55.648;13.208;2024-03-25T00:26:09;29.50;;;19.63;;
16153;SDS011;8182;55.648;13.208;2024-03-25T00:28:36;32.27;;;21.07;;
16153;SDS011;8182;55.648;13.208;2024-03-25T00:31:03;28.73;;;19.23;;
16153;SDS011;8182;55.648;13.208;2024-03-25T00:33:30;31.23;;;19.83;;
16153;SDS011;8182;55.648;13.208;2024-03-25T00:35:57;29.93;;;20.07;;
16153;SDS011;8182;55.648;13.208;2024-03-25T00:38:24;29.47;;;19.37;;
16153;SDS011;8182;55.648;13.208;2024-03-25T00:40:50;29.93;;;19.17;;
16153;SDS011;8182;55.648;13.208;2024-03-25T00:43:18;29.93;;;19.50;;
16153;SDS011;8182;55.648;13.208;2024-03-25T00:45:45;27.17;;;17.97;;
16153;SDS011;8182;55.648;13.208;2024-03-25T00:48:11;30.70;;;20.00;;
16153;SDS011;8182;55.648;13.208;2024-03-25T00:50:37;31.90;;;20.27;;
16153;SDS011;8182;55.648;13.208;2024-03-25T00:53:04;30.13;;;20.00;;
16153;SDS011;8182;55.648;13.208;2024-03-25T00:55:30;33.70;;;20.77;;
16153;SDS011;8182;55.648;13.208;2024-03-25T00:57:57;30.10;;;19.67;;
16153;SDS011;8182;55.648;13.208;2024-03-25T01:00:24;29.90;;;19.73;;
16153;SDS011;8182;55.648;13.208;2024-03-25T01:02:51;33.10;;;20.27;;
16153;SDS011;8182;55.648;13.208;2024-03-25T01:05:17;28.97;;;18.97;;
16153;SDS011;8182;55.648;13.208;2024-03-25T01:07:43;26.70;;;18.17;;
16153;SDS011;8182;55.648;13.208;2024-03-25T01:10:09;28.80;;;18.70;;
16153;SDS011;8182;55.648;13.208;2024-03-25T01:12:36;26.43;;;17.70;;
16153;SDS011;8182;55.648;13.208;2024-03-25T01:15:02;28.43;;;18.33;;
16153;SDS011;8182;55.648;13.208;2024-03-25T01:17:32;28.50;;;18.97;;
16153;SDS011;8182;55.648;13.208;2024-03-25T01:19:58;28.13;;;19.20;;
16153;SDS011;8182;55.648;13.208;2024-03-25T01:22:24;27.10;;;18.90;;
16153;SDS011;8182;55.648;13.208;2024-03-25T01:24:50;27.90;;;18.60;;
16153;SDS011;8182;55.648;13.208;2024-03-25T01:27:17;25.83;;;17.77;;
16153;SDS011;8182;55.648;13.208;2024-03-25T01:29:43;27.13;;;18.37;;
16153;SDS011;8182;55.648;13.208;2024-03-25T01:32:10;29.97;;;19.13;;
16153;SDS011;8182;55.648;13.208;2024-03-25T01:34:37;28.57;;;18.20;;
16153;SDS011;8182;55.648;13.208;2024-03-25T01:37:04;29.53;;;18.50;;
16153;SDS011;8182;55.648;13.208;2024-03-25T01:39:29;28.70;;;19.17;;
16153;SDS011;8182;55.648;13.208;2024-03-25T01:41:56;26.50;;;18.40;;
16153;SDS011;8182;55.648;13.208;2024-03-25T01:44:22;28.87;;;19.07;;
16153;SDS011;8182;55.648;13.208;2024-03-25T01:46:49;27.47;;;18.63;;
16153;SDS011;8182;55.648;13.208;2024-03-25T01:49:17;29.33;;;19.67;;
16153;SDS011;8182;55.648;13.208;2024-03-25T01:51:47;30.50;;;18.93;;
16153;SDS011;8182;55.648;13.208;2024-03-25T01:54:13;30.37;;;20.60;;
16153;SDS011;8182;55.648;13.208;2024-03-25T01:56:42;29.07;;;18.23;;
16153;SDS011;8182;55.648;13.208;2024-03-25T01:59:11;29.73;;;19.60;;
16153;SDS011;8182;55.648;13.208;2024-03-25T02:01:41;28.07;;;18.60;;
16153;SDS011;8182;55.648;13.208;2024-03-25T02:04:08;29.47;;;19.63;;
16153;SDS011;8182;55.648;13.208;2024-03-25T02:06:37;29.20;;;19.40;;
16153;SDS011;8182;55.648;13.208;2024-03-25T02:09:06;30.27;;;19.60;;
16153;SDS011;8182;55.648;13.208;2024-03-25T02:11:35;28.07;;;18.60;;
16153;SDS011;8182;55.648;13.208;2024-03-25T02:14:01;31.00;;;19.37;;
16153;SDS011;8182;55.648;13.208;2024-03-25T02:16:28;27.87;;;18.97;;
16153;SDS011;8182;55.648;13.208;2024-03-25T02:18:54;26.50;;;18.13;;
16153;SDS011;8182;55.648;13.208;2024-03-25T02:21:21;28.67;;;19.20;;
16153;SDS011;8182;55.648;13.208;2024-03-25T02:23:47;28.40;;;18.70;;
16153;SDS011;8182;55.648;13.208;2024-03-25T02:26:17;26.60;;;18.20;;
16153;SDS011;8182;55.648;13.208;2024-03-25T02:28:43;28.97;;;18.57;;
16153;SDS011;8182;55.648;13.208;2024-03-25T02:31:10;32.40;;;18.30;;
16153;SDS011;8182;55.648;13.208;2024-03-25T02:33:36;27.53;;;18.27;;
16153;SDS011;8182;55.648;13.208;2024-03-25T02:36:02;29.13;;;19.27;;
16153;SDS011;8182;55.648;13.208;2024-03-25T02:38:29;26.77;;;17.83;;
16153;SDS011;8182;55.648;13.208;2024-03-25T02:40:57;29.90;;;19.50;;
16153;SDS011;8182;55.648;13.208;2024-03-25T02:43:24;29.27;;;18.50;;
16153;SDS011;8182;55.648;13.208;2024-03-25T02:45:51;30.30;;;19.17;;
16153;SDS011;8182;55.648;13.208;2024-03-25T02:48:17;30.57;;;19.30;;
16153;SDS011;8182;55.648;13.208;2024-03-25T02:50:44;28.83;;;18.97;;
16153;SDS011;8182;55.648;13.208;2024-03-25T02:53:10;27.60;;;18.87;;
16153;SDS011;8182;55.648;13.208;2024-03-25T02:55:37;26.67;;;18.40;;
16153;SDS011;8182;55.648;13.208;2024-03-25T02:58:03;27.73;;;18.33;;
16153;SDS011;8182;55.648;13.208;2024-03-25T03:00:31;29.20;;;18.43;;
16153;SDS011;8182;55.648;13.208;2024-03-25T03:02:57;28.17;;;18.97;;
16153;SDS011;8182;55.648;13.208;2024-03-25T03:05:24;27.40;;;19.10;;
16153;SDS011;8182;55.648;13.208;2024-03-25T03:07:50;29.20;;;18.80;;
16153;SDS011;8182;55.648;13.208;2024-03-25T03:10:17;29.33;;;17.80;;
16153;SDS011;8182;55.648;13.208;2024-03-25T03:12:43;27.27;;;17.50;;
16153;SDS011;8182;55.648;13.208;2024-03-25T03:15:09;31.23;;;19.50;;
16153;SDS011;8182;55.648;13.208;2024-03-25T03:17:37;32.10;;;19.43;;
16153;SDS011;8182;55.648;13.208;2024-03-25T03:20:05;29.03;;;19.40;;
16153;SDS011;8182;55.648;13.208;2024-03-25T03:22:31;29.13;;;19.17;;
16153;SDS011;8182;55.648;13.208;2024-03-25T03:24:58;27.50;;;18.03;;
16153;SDS011;8182;55.648;13.208;2024-03-25T03:27:24;25.60;;;17.67;;
16153;SDS011;8182;55.648;13.208;2024-03-25T03:29:51;26.57;;;17.27;;
16153;SDS011;8182;55.648;13.208;2024-03-25T03:32:17;31.57;;;18.20;;
16153;SDS011;8182;55.648;13.208;2024-03-25T03:34:45;30.50;;;17.87;;
16153;SDS011;8182;55.648;13.208;2024-03-25T03:37:11;30.60;;;18.67;;
16153;SDS011;8182;55.648;13.208;2024-03-25T03:39:37;27.53;;;17.87;;
16153;SDS011;8182;55.648;13.208;2024-03-25T03:42:03;26.33;;;17.90;;
16153;SDS011;8182;55.648;13.208;2024-03-25T03:44:30;27.30;;;19.40;;
16153;SDS011;8182;55.648;13.208;2024-03-25T03:46:56;27.77;;;18.13;;
16153;SDS011;8182;55.648;13.208;2024-03-25T03:49:23;27.00;;;18.43;;
16153;SDS011;8182;55.648;13.208;2024-03-25T03:51:50;28.23;;;18.47;;
16153;SDS011;8182;55.648;13.208;2024-03-25T03:54:17;27.83;;;18.43;;
16153;SDS011;8182;55.648;13.208;2024-03-25T03:56:43;28.37;;;18.10;;
16153;SDS011;8182;55.648;13.208;2024-03-25T03:59:09;28.07;;;17.70;;
16153;SDS011;8182;55.648;13.208;2024-03-25T04:01:35;26.60;;;16.30;;
16153;SDS011;8182;55.648;13.208;2024-03-25T04:04:02;30.73;;;18.57;;
16153;SDS011;8182;55.648;13.208;2024-03-25T04:06:29;26.63;;;17.83;;
16153;SDS011;8182;55.648;13.208;2024-03-25T04:08:57;29.10;;;17.50;;
16153;SDS011;8182;55.648;13.208;2024-03-25T04:11:23;28.63;;;18.37;;
16153;SDS011;8182;55.648;13.208;2024-03-25T04:13:50;27.63;;;18.07;;
16153;SDS011;8182;55.648;13.208;2024-03-25T04:16:16;28.03;;;18.23;;
16153;SDS011;8182;55.648;13.208;2024-03-25T04:18:43;29.33;;;18.43;;
16153;SDS011;8182;55.648;13.208;2024-03-25T04:21:11;27.30;;;17.53;;
16153;SDS011;8182;55.648;13.208;2024-03-25T04:23:39;27.13;;;16.60;;
16153;SDS011;8182;55.648;13.208;2024-03-25T04:26:07;25.17;;;16.30;;
16153;SDS011;8182;55.648;13.208;2024-03-25T04:28:34;27.00;;;17.20;;
16153;SDS011;8182;55.648;13.208;2024-03-25T04:31:00;30.03;;;19.37;;
16153;SDS011;8182;55.648;13.208;2024-03-25T04:33:27;32.20;;;19.23;;
16153;SDS011;8182;55.648;13.208;2024-03-25T04:35:53;29.47;;;18.23;;
16153;SDS011;8182;55.648;13.208;2024-03-25T04:38:21;32.17;;;19.40;;
16153;SDS011;8182;55.648;13.208;2024-03-25T04:40:46;31.03;;;19.70;;
16153;SDS011;8182;55.648;13.208;2024-03-25T04:43:14;34.17;;;19.70;;
16153;SDS011;8182;55.648;13.208;2024-03-25T04:45:40;32.90;;;19.90;;
16153;SDS011;8182;55.648;13.208;2024-03-25T04:48:06;36.10;;;19.87;;
16153;SDS011;8182;55.648;13.208;2024-03-25T04:50:33;30.47;;;19.37;;
16153;SDS011;8182;55.648;13.208;2024-03-25T04:52:59;29.13;;;18.93;;
16153;SDS011;8182;55.648;13.208;2024-03-25T04:55:25;30.37;;;18.83;;
16153;SDS011;8182;55.648;13.208;2024-03-25T04:57:51;31.53;;;18.70;;
16153;SDS011;8182;55.648;13.208;2024-03-25T05:00:19;26.57;;;17.50;;
16153;SDS011;8182;55.648;13.208;2024-03-25T05:02:45;34.67;;;18.03;;
16153;SDS011;8182;55.648;13.208;2024-03-25T05:05:11;31.93;;;17.70;;
16153;SDS011;8182;55.648;13.208;2024-03-25T05:07:36;31.03;;;17.10;;
16153;SDS011;8182;55.648;13.208;2024-03-25T05:10:02;28.00;;;16.27;;
16153;SDS011;8182;55.648;13.208;2024-03-25T05:12:29;31.83;;;17.60;;
16153;SDS011;8182;55.648;13.208;2024-03-25T05:14:55;31.97;;;17.13;;
16153;SDS011;8182;55.648;13.208;2024-03-25T05:17:22;30.63;;;18.27;;
16153;SDS011;8182;55.648;13.208;2024-03-25T05:19:48;30.47;;;17.60;;
16153;SDS011;8182;55.648;13.208;2024-03-25T05:22:14;34.07;;;18.63;;
16153;SDS011;8182;55.648;13.208;2024-03-25T05:24:40;28.73;;;17.27;;
16153;SDS011;8182;55.648;13.208;2024-03-25T05:27:06;32.10;;;18.53;;
16153;SDS011;8182;55.648;13.208;2024-03-25T05:29:32;28.50;;;16.97;;
16153;SDS011;8182;55.648;13.208;2024-03-25T05:31:58;27.80;;;16.27;;
16153;SDS011;8182;55.648;13.208;2024-03-25T05:34:27;27.73;;;17.70;;
16153;SDS011;8182;55.648;13.208;2024-03-25T05:36:53;29.57;;;17.50;;
16153;SDS011;8182;55.648;13.208;2024-03-25T05:39:20;32.83;;;18.30;;
16153;SDS011;8182;55.648;13.208;2024-03-25T05:41:46;31.80;;;18.87;;
16153;SDS011;8182;55.648;13.208;2024-03-25T05:44:12;37.20;;;19.20;;
16153;SDS011;8182;55.648;13.208;2024-03-25T05:46:38;35.23;;;19.67;;
16153;SDS011;8182;55.648;13.208;2024-03-25T05:49:04;33.80;;;19.47;;
16153;SDS011;8182;55.648;13.208;2024-03-25T05:51:32;36.17;;;19.13;;
16153;SDS011;8182;55.648;13.208;2024-03-25T05:53:58;33.00;;;19.07;;
16153;SDS011;8182;55.648;13.208;2024-03-25T05:56:25;33.33;;;18.53;;
16153;SDS011;8182;55.648;13.208;2024-03-25T05:58:51;33.47;;;18.93;;
16153;SDS011;8182;55.648;13.208;2024-03-25T06:01:16;35.53;;;19.30;;
16153;SDS011;8182;55.648;13.208;2024-03-25T06:03:42;35.27;;;20.03;;
16153;SDS011;8182;55.648;13.208;2024-03-25T06:06:08;37.40;;;20.93;;
16153;SDS011;8182;55.648;13.208;2024-03-25T06:08:36;33.57;;;19.30;;
16153;SDS011;8182;55.648;13.208;2024-03-25T06:11:02;33.00;;;19.07;;
16153;SDS011;8182;55.648;13.208;2024-03-25T06:13:28;33.60;;;18.30;;
16153;SDS011;8182;55.648;13.208;2024-03-25T06:15:55;29.20;;;18.30;;
16153;SDS011;8182;55.648;13.208;2024-03-25T06:18:21;30.50;;;18.43;;
16153;SDS011;8182;55.648;13.208;2024-03-25T06:20:47;33.80;;;20.10;;
16153;SDS011;8182;55.648;13.208;2024-03-25T06:23:21;33.50;;;19.07;;
16153;SDS011;8182;55.648;13.208;2024-03-25T06:25:49;32.07;;;18.10;;
16153;SDS011;8182;55.648;13.208;2024-03-25T06:28:15;31.40;;;18.20;;
16153;SDS011;8182;55.648;13.208;2024-03-25T06:30:41;31.47;;;17.50;;
16153;SDS011;8182;55.648;13.208;2024-03-25T06:33:25;34.40;;;16.93;;
16153;SDS011;8182;55.648;13.208;2024-03-25T06:36:09;28.87;;;16.67;;
16153;SDS011;8182;55.648;13.208;2024-03-25T06:38:35;26.47;;;16.43;;
16153;SDS011;8182;55.648;13.208;2024-03-25T06:41:03;24.90;;;14.67;;
16153;SDS011;8182;55.648;13.208;2024-03-25T06:43:28;24.43;;;14.47;;
16153;SDS011;8182;55.648;13.208;2024-03-25T06:45:54;23.90;;;15.13;;
16153;SDS011;8182;55.648;13.208;2024-03-25T06:48:20;21.40;;;13.73;;
16153;SDS011;8182;55.648;13.208;2024-03-25T06:50:52;24.67;;;13.60;;
16153;SDS011;8182;55.648;13.208;2024-03-25T06:53:18;23.40;;;14.43;;
16153;SDS011;8182;55.648;13.208;2024-03-25T06:55:50;23.20;;;13.73;;
16153;SDS011;8182;55.648;13.208;2024-03-25T06:58:18;24.00;;;13.53;;
16153;SDS011;8182;55.648;13.208;2024-03-25T07:00:44;22.33;;;13.60;;
16153;SDS011;8182;55.648;13.208;2024-03-25T07:03:10;21.50;;;13.13;;
16153;SDS011;8182;55.648;13.208;2024-03-25T07:05:36;25.27;;;13.47;;
16153;SDS011;8182;55.648;13.208;2024-03-25T07:08:02;24.43;;;15.00;;
16153;SDS011;8182;55.648;13.208;2024-03-25T07:10:28;22.57;;;14.00;;
16153;SDS011;8182;55.648;13.208;2024-03-25T07:12:54;22.30;;;13.20;;
16153;SDS011;8182;55.648;13.208;2024-03-25T07:15:22;21.23;;;13.73;;
16153;SDS011;8182;55.648;13.208;2024-03-25T07:17:47;19.97;;;12.90;;
16153;SDS011;8182;55.648;13.208;2024-03-25T07:20:13;19.97;;;12.40;;
16153;SDS011;8182;55.648;13.208;2024-03-25T07:22:39;21.87;;;13.77;;
16153;SDS011;8182;55.648;13.208;2024-03-25T07:25:06;19.70;;;13.07;;
16153;SDS011;8182;55.648;13.208;2024-03-25T07:27:32;20.07;;;11.83;;
16153;SDS011;8182;55.648;13.208;2024-03-25T07:29:58;21.43;;;12.83;;
16153;SDS011;8182;55.648;13.208;2024-03-25T07:32:25;19.17;;;12.70;;
16153;SDS011;8182;55.648;13.208;2024-03-25T07:34:51;18.60;;;12.47;;
16153;SDS011;8182;55.648;13.208;2024-03-25T07:37:17;18.87;;;12.03;;
16153;SDS011;8182;55.648;13.208;2024-03-25T07:39:43;19.87;;;12.43;;
16153;SDS011;8182;55.648;13.208;2024-03-25T07:42:11;21.13;;;12.20;;
16153;SDS011;8182;55.648;13.208;2024-03-25T07:44:37;17.57;;;10.90;;
16153;SDS011;8182;55.648;13.208;2024-03-25T07:47:03;14.57;;;9.63;;
16153;SDS011;8182;55.648;13.208;2024-03-25T07:49:30;15.00;;;9.73;;
16153;SDS011;8182;55.648;13.208;2024-03-25T07:51:56;18.43;;;11.07;;
16153;SDS011;8182;55.648;13.208;2024-03-25T07:54:22;12.50;;;8.90;;
16153;SDS011;8182;55.648;13.208;2024-03-25T07:56:48;12.40;;;9.00;;
16153;SDS011;8182;55.648;13.208;2024-03-25T07:59:14;14.17;;;8.97;;
16153;SDS011;8182;55.648;13.208;2024-03-25T08:01:40;15.67;;;8.93;;
16153;SDS011;8182;55.648;13.208;2024-03-25T08:04:06;12.80;;;8.70;;
16153;SDS011;8182;55.648;13.208;2024-03-25T08:06:33;13.80;;;9.67;;
16153;SDS011;8182;55.648;13.208;2024-03-25T08:08:59;13.17;;;8.67;;
16153;SDS011;8182;55.648;13.208;2024-03-25T08:11:25;12.43;;;8.57;;
16153;SDS011;8182;55.648;13.208;2024-03-25T08:13:51;10.07;;;7.57;;
16153;SDS011;8182;55.648;13.208;2024-03-25T08:16:17;11.30;;;7.77;;
16153;SDS011;8182;55.648;13.208;2024-03-25T08:18:44;11.17;;;7.43;;
16153;SDS011;8182;55.648;13.208;2024-03-25T08:21:10;10.33;;;7.33;;
16153;SDS011;8182;55.648;13.208;2024-03-25T08:23:37;10.23;;;6.93;;
16153;SDS011;8182;55.648;13.208;2024-03-25T08:26:03;10.97;;;7.23;;
16153;SDS011;8182;55.648;13.208;2024-03-25T08:28:29;10.70;;;6.93;;
16153;SDS011;8182;55.648;13.208;2024-03-25T08:30:54;10.97;;;7.23;;
16153;SDS011;8182;55.648;13.208;2024-03-25T08:33:20;13.20;;;6.63;;
16153;SDS011;8182;55.648;13.208;2024-03-25T08:35:46;9.87;;;5.60;;
16153;SDS011;8182;55.648;13.208;2024-03-25T08:38:12;10.33;;;5.40;;
16153;SDS011;8182;55.648;13.208;2024-03-25T08:40:39;9.57;;;5.97;;
16153;SDS011;8182;55.648;13.208;2024-03-25T08:43:05;9.23;;;5.40;;
16153;SDS011;8182;55.648;13.208;2024-03-25T08:45:31;13.90;;;8.40;;
16153;SDS011;8182;55.648;13.208;2024-03-25T08:47:57;8.90;;;5.73;;
16153;SDS011;8182;55.648;13.208;2024-03-25T08:50:23;7.43;;;4.03;;
16153;SDS011;8182;55.648;13.208;2024-03-25T08:52:49;5.90;;;4.60;;
16153;SDS011;8182;55.648;13.208;2024-03-25T08:55:15;9.47;;;4.60;;
16153;SDS011;8182;55.648;13.208;2024-03-25T08:57:42;8.03;;;4.60;;
16153;SDS011;8182;55.648;13.208;2024-03-25T09:00:09;6.17;;;4.60;;
16153;SDS011;8182;55.648;13.208;2024-03-25T09:02:36;6.93;;;3.90;;
16153;SDS011;8182;55.648;13.208;2024-03-25T09:05:02;8.07;;;4.33;;
16153;SDS011;8182;55.648;13.208;2024-03-25T09:07:28;7.73;;;3.80;;
16153;SDS011;8182;55.648;13.208;2024-03-25T09:09:54;6.20;;;3.63;;
16153;SDS011;8182;55.648;13.208;2024-03-25T09:12:38;7.93;;;3.73;;
16153;SDS011;8182;55.648;13.208;2024-03-25T09:15:06;5.37;;;3.50;;
16153;SDS011;8182;55.648;13.208;2024-03-25T09:17:32;6.07;;;3.50;;
16153;SDS011;8182;55.648;13.208;2024-03-25T09:19:58;5.73;;;3.03;;
16153;SDS011;8182;55.648;13.208;2024-03-25T09:22:24;8.43;;;3.70;;
16153;SDS011;8182;55.648;13.208;2024-03-25T09:24:49;7.07;;;3.20;;
16153;SDS011;8182;55.648;13.208;2024-03-25T09:27:15;7.23;;;3.13;;
16153;SDS011;8182;55.648;13.208;2024-03-25T09:29:41;5.70;;;3.20;;
16153;SDS011;8182;55.648;13.208;2024-03-25T09:32:09;6.97;;;2.93;;
16153;SDS011;8182;55.648;13.208;2024-03-25T09:34:34;3.73;;;2.20;;
16153;SDS011;8182;55.648;13.208;2024-03-25T09:37:00;3.33;;;2.10;;
16153;SDS011;8182;55.648;13.208;2024-03-25T09:39:26;4.07;;;2.17;;
16153;SDS011;8182;55.648;13.208;2024-03-25T09:41:53;4.67;;;2.07;;
16153;SDS011;8182;55.648;13.208;2024-03-25T09:44:21;4.63;;;1.87;;
16153;SDS011;8182;55.648;13.208;2024-03-25T09:46:49;3.13;;;1.70;;
16153;SDS011;8182;55.648;13.208;2024-03-25T09:49:17;3.73;;;1.90;;
16153;SDS011;8182;55.648;13.208;2024-03-25T09:51:44;3.37;;;1.60;;
16153;SDS011;8182;55.648;13.208;2024-03-25T09:54:10;1.90;;;1.60;;
16153;SDS011;8182;55.648;13.208;2024-03-25T09:56:36;3.80;;;1.83;;
16153;SDS011;8182;55.648;13.208;2024-03-25T09:59:03;5.60;;;1.70;;
16153;SDS011;8182;55.648;13.208;2024-03-25T10:01:30;1.97;;;1.57;;
16153;SDS011;8182;55.648;13.208;2024-03-25T10:03:56;2.37;;;1.60;;
16153;SDS011;8182;55.648;13.208;2024-03-25T10:06:23;5.27;;;2.40;;
16153;SDS011;8182;55.648;13.208;2024-03-25T10:08:52;4.23;;;1.80;;
16153;SDS011;8182;55.648;13.208;2024-03-25T10:11:19;1.97;;;1.20;;
16153;SDS011;8182;55.648;13.208;2024-03-25T10:13:45;1.30;;;1.20;;
16153;SDS011;8182;55.648;13.208;2024-03-25T10:16:11;2.07;;;1.40;;
16153;SDS011;8182;55.648;13.208;2024-03-25T10:18:36;1.90;;;1.53;;
16153;SDS011;8182;55.648;13.208;2024-03-25T10:21:02;3.03;;;1.60;;
16153;SDS011;8182;55.648;13.208;2024-03-25T10:23:30;3.13;;;1.40;;
16153;SDS011;8182;55.648;13.208;2024-03-25T10:25:56;4.00;;;1.50;;
16153;SDS011;8182;55.648;13.208;2024-03-25T10:28:22;2.87;;;1.40;;
16153;SDS011;8182;55.648;13.208;2024-03-25T10:30:48;2.03;;;1.50;;
16153;SDS011;8182;55.648;13.208;2024-03-25T10:33:15;2.37;;;1.50;;
16153;SDS011;8182;55.648;13.208;2024-03-25T10:35:43;1.93;;;1.43;;
16153;SDS011;8182;55.648;13.208;2024-03-25T10:38:12;1.40;;;1.30;;
16153;SDS011;8182;55.648;13.208;2024-03-25T10:40:43;1.80;;;1.43;;
16153;SDS011;8182;55.648;13.208;2024-03-25T10:43:11;2.10;;;1.40;;
16153;SDS011;8182;55.648;13.208;2024-03-25T10:45:37;2.07;;;1.60;;
16153;SDS011;8182;55.648;13.208;2024-03-25T10:48:07;2.23;;;1.50;;
16153;SDS011;8182;55.648;13.208;2024-03-25T10:50:37;2.40;;;1.63;;
16153;SDS011;8182;55.648;13.208;2024-03-25T10:53:04;2.90;;;1.50;;
16153;SDS011;8182;55.648;13.208;2024-03-25T10:55:31;1.90;;;1.43;;
16153;SDS011;8182;55.648;13.208;2024-03-25T10:58:00;1.70;;;1.50;;
16153;SDS011;8182;55.648;13.208;2024-03-25T11:00:27;2.33;;;1.80;;
16153;SDS011;8182;55.648;13.208;2024-03-25T11:02:54;1.73;;;1.30;;
16153;SDS011;8182;55.648;13.208;2024-03-25T11:05:20;1.83;;;1.40;;
16153;SDS011;8182;55.648;13.208;2024-03-25T11:07:46;1.77;;;1.50;;
16153;SDS011;8182;55.648;13.208;2024-03-25T11:10:12;2.23;;;1.70;;
16153;SDS011;8182;55.648;13.208;2024-03-25T11:12:39;1.93;;;1.63;;
16153;SDS011;8182;55.648;13.208;2024-03-25T11:15:08;3.20;;;2.20;;
16153;SDS011;8182;55.648;13.208;2024-03-25T11:17:35;1.83;;;1.50;;
16153;SDS011;8182;55.648;13.208;2024-03-25T11:20:09;2.23;;;1.73;;
16153;SDS011;8182;55.648;13.208;2024-03-25T11:22:35;2.47;;;1.73;;
16153;SDS011;8182;55.648;13.208;2024-03-25T11:25:12;2.53;;;1.67;;
16153;SDS011;8182;55.648;13.208;2024-03-25T11:27:38;1.90;;;1.40;;
16153;SDS011;8182;55.648;13.208;2024-03-25T11:30:06;3.23;;;1.90;;
16153;SDS011;8182;55.648;13.208;2024-03-25T11:32:42;2.40;;;1.63;;
16153;SDS011;8182;55.648;13.208;2024-03-25T11:35:10;1.67;;;1.50;;
16153;SDS011;8182;55.648;13.208;2024-03-25T11:37:39;2.00;;;1.70;;
16153;SDS011;8182;55.648;13.208;2024-03-25T11:40:06;3.30;;;1.80;;
16153;SDS011;8182;55.648;13.208;2024-03-25T11:42:33;1.80;;;1.70;;
16153;SDS011;8182;55.648;13.208;2024-03-25T11:44:59;2.47;;;1.97;;
16153;SDS011;8182;55.648;13.208;2024-03-25T11:47:27;2.77;;;1.90;;
16153;SDS011;8182;55.648;13.208;2024-03-25T11:49:53;3.33;;;2.13;;
16153;SDS011;8182;55.648;13.208;2024-03-25T11:52:19;2.87;;;2.20;;
16153;SDS011;8182;55.648;13.208;2024-03-25T11:54:45;2.97;;;1.80;;
16153;SDS011;8182;55.648;13.208;2024-03-25T11:57:19;3.77;;;2.40;;
16153;SDS011;8182;55.648;13.208;2024-03-25T11:59:46;3.90;;;2.37;;
16153;SDS011;8182;55.648;13.208;2024-03-25T12:02:13;4.07;;;2.47;;
16153;SDS011;8182;55.648;13.208;2024-03-25T12:04:43;2.97;;;2.40;;
16153;SDS011;8182;55.648;13.208;2024-03-25T12:07:10;5.60;;;2.47;;
16153;SDS011;8182;55.648;13.208;2024-03-25T12:09:37;4.03;;;2.20;;
16153;SDS011;8182;55.648;13.208;2024-03-25T12:12:21;3.13;;;2.13;;
16153;SDS011;8182;55.648;13.208;2024-03-25T12:14:47;3.00;;;2.30;;
16153;SDS011;8182;55.648;13.208;2024-03-25T12:17:13;2.63;;;1.97;;
16153;SDS011;8182;55.648;13.208;2024-03-25T12:19:39;3.27;;;2.50;;
16153;SDS011;8182;55.648;13.208;2024-03-25T12:22:06;2.23;;;1.80;;
16153;SDS011;8182;55.648;13.208;2024-03-25T12:24:32;4.80;;;2.20;;
16153;SDS011;8182;55.648;13.208;2024-03-25T12:26:58;3.17;;;2.33;;
16153;SDS011;8182;55.648;13.208;2024-03-25T12:29:24;3.07;;;2.30;;
16153;SDS011;8182;55.648;13.208;2024-03-25T12:31:54;4.07;;;2.47;;
16153;SDS011;8182;55.648;13.208;2024-03-25T12:34:20;2.00;;;1.80;;
16153;SDS011;8182;55.648;13.208;2024-03-25T12:36:46;2.73;;;2.20;;
16153;SDS011;8182;55.648;13.208;2024-03-25T12:39:17;3.13;;;2.30;;
16153;SDS011;8182;55.648;13.208;2024-03-25T12:41:44;1.93;;;1.80;;
16153;SDS011;8182;55.648;13.208;2024-03-25T12:44:11;2.73;;;2.13;;
16153;SDS011;8182;55.648;13.208;2024-03-25T12:46:37;3.03;;;2.30;;
16153;SDS011;8182;55.648;13.208;2024-03-25T12:49:04;2.50;;;2.27;;
16153;SDS011;8182;55.648;13.208;2024-03-25T12:51:30;2.40;;;2.03;;
16153;SDS011;8182;55.648;13.208;2024-03-25T12:53:56;3.43;;;2.50;;
16153;SDS011;8182;55.648;13.208;2024-03-25T12:56:23;3.37;;;2.50;;
16153;SDS011;8182;55.648;13.208;2024-03-25T12:58:49;4.10;;;2.83;;
16153;SDS011;8182;55.648;13.208;2024-03-25T13:01:15;4.10;;;2.80;;
16153;SDS011;8182;55.648;13.208;2024-03-25T13:03:41;4.17;;;3.00;;
16153;SDS011;8182;55.648;13.208;2024-03-25T13:06:07;3.50;;;3.03;;
16153;SDS011;8182;55.648;13.208;2024-03-25T13:08:33;4.90;;;3.40;;
16153;SDS011;8182;55.648;13.208;2024-03-25T13:10:59;4.33;;;3.10;;
16153;SDS011;8182;55.648;13.208;2024-03-25T13:13:26;4.53;;;3.10;;
16153;SDS011;8182;55.648;13.208;2024-03-25T13:15:52;6.17;;;2.73;;
16153;SDS011;8182;55.648;13.208;2024-03-25T13:18:18;3.87;;;2.53;;
16153;SDS011;8182;55.648;13.208;2024-03-25T13:20:44;4.80;;;2.60;;
16153;SDS011;8182;55.648;13.208;2024-03-25T13:23:10;3.43;;;2.60;;
16153;SDS011;8182;55.648;13.208;2024-03-25T13:25:36;4.43;;;2.80;;
16153;SDS011;8182;55.648;13.208;2024-03-25T13:28:02;3.23;;;2.40;;
16153;SDS011;8182;55.648;13.208;2024-03-25T13:30:30;4.67;;;2.50;;
16153;SDS011;8182;55.648;13.208;2024-03-25T13:32:57;3.13;;;2.43;;
16153;SDS011;8182;55.648;13.208;2024-03-25T13:35:23;3.13;;;2.60;;
16153;SDS011;8182;55.648;13.208;2024-03-25T13:37:49;3.63;;;2.47;;
16153;SDS011;8182;55.648;13.208;2024-03-25T13:40:15;3.80;;;2.50;;
16153;SDS011;8182;55.648;13.208;2024-03-25T13:42:41;2.43;;;2.10;;
16153;SDS011;8182;55.648;13.208;2024-03-25T13:45:07;4.47;;;2.50;;
16153;SDS011;8182;55.648;13.208;2024-03-25T13:47:35;2.73;;;2.30;;
16153;SDS011;8182;55.648;13.208;2024-03-25T13:50:01;3.17;;;2.30;;
16153;SDS011;8182;55.648;13.208;2024-03-25T13:52:27;3.50;;;2.63;;
16153;SDS011;8182;55.648;13.208;2024-03-25T13:54:53;4.03;;;2.40;;
16153;SDS011;8182;55.648;13.208;2024-03-25T13:57:19;3.77;;;2.80;;
16153;SDS011;8182;55.648;13.208;2024-03-25T13:59:46;3.90;;;2.53;;
16153;SDS011;8182;55.648;13.208;2024-03-25T14:02:11;3.03;;;2.50;;
16153;SDS011;8182;55.648;13.208;2024-03-25T14:04:39;3.33;;;2.60;;
16153;SDS011;8182;55.648;13.208;2024-03-25T14:07:04;3.43;;;2.50;;
16153;SDS011;8182;55.648;13.208;2024-03-25T14:09:30;2.67;;;2.30;;
16153;SDS011;8182;55.648;13.208;2024-03-25T14:11:56;2.83;;;2.20;;
16153;SDS011;8182;55.648;13.208;2024-03-25T14:14:22;4.23;;;2.27;;
16153;SDS011;8182;55.648;13.208;2024-03-25T14:16:48;3.87;;;2.40;;
16153;SDS011;8182;55.648;13.208;2024-03-25T14:19:14;2.73;;;2.20;;
16153;SDS011;8182;55.648;13.208;2024-03-25T14:21:41;2.67;;;1.93;;
16153;SDS011;8182;55.648;13.208;2024-03-25T14:24:07;3.90;;;2.17;;
16153;SDS011;8182;55.648;13.208;2024-03-25T14:26:33;2.63;;;2.00;;
16153;SDS011;8182;55.648;13.208;2024-03-25T14:28:59;2.80;;;2.10;;
16153;SDS011;8182;55.648;13.208;2024-03-25T14:31:25;3.20;;;2.13;;